createdAt,value
2022-11-02T00:00:56.509Z,66.49
2022-11-02T00:03:26.473Z,66.19
2022-11-02T00:05:56.102Z,66.21
2022-11-02T00:08:25.943Z,66.17
2022-11-02T00:10:55.205Z,66.37
2022-11-02T00:13:25.152Z,66.14
2022-11-02T00:15:54.448Z,66.26
2022-11-02T00:18:21.895Z,66.50
2022-11-02T00:20:49.141Z,66.31
2022-11-02T00:23:18.401Z,66.45
2022-11-02T00:25:47.812Z,66.44
2022-11-02T00:28:15.211Z,66.13
2022-11-02T00:30:45.299Z,66.48
2022-11-02T00:33:13.944Z,66.44
2022-11-02T00:35:43.920Z,66.49
2022-11-02T00:38:10.799Z,66.66
2022-11-02T00:40:40.250Z,66.46
2022-11-02T00:43:07.346Z,66.48
2022-11-02T00:45:35.407Z,66.32
2022-11-02T00:48:03.215Z,66.65
2022-11-02T00:50:30.424Z,66.69
2022-11-02T00:52:57.748Z,66.56
2022-11-02T00:55:28.297Z,66.37
2022-11-02T00:58:00.411Z,66.17
2022-11-02T01:00:27.609Z,66.33
2022-11-02T01:02:57.721Z,66.08
2022-11-02T01:05:26.975Z,65.97
2022-11-02T01:07:56.546Z,65.99
2022-11-02T01:10:26.156Z,65.95
2022-11-02T01:12:54.599Z,65.93
2022-11-02T01:15:24.929Z,65.94
2022-11-02T01:17:51.856Z,65.96
2022-11-02T01:20:18.781Z,65.88
2022-11-02T01:22:47.275Z,65.71
2022-11-02T01:25:14.330Z,65.74
2022-11-02T01:27:42.222Z,65.85
2022-11-02T01:30:12.418Z,65.50
2022-11-02T01:32:41.024Z,65.71
2022-11-02T01:35:08.307Z,65.69
2022-11-02T01:37:35.328Z,65.93
2022-11-02T01:40:03.018Z,65.93
2022-11-02T01:42:32.211Z,65.45
2022-11-02T01:45:02.174Z,65.72
2022-11-02T01:47:51.980Z,65.82
2022-11-02T01:50:27.500Z,65.85
2022-11-02T01:52:57.101Z,65.63
2022-11-02T01:55:35.591Z,65.76
2022-11-02T01:58:08.357Z,65.86
2022-11-02T02:00:39.553Z,66.01
2022-11-02T02:03:17.927Z,66.34
2022-11-02T02:05:55.151Z,66.36
2022-11-02T02:08:25.291Z,66.41
2022-11-02T02:10:56.888Z,65.92
2022-11-02T02:13:28.027Z,66.55
2022-11-02T02:16:06.911Z,66.71
2022-11-02T02:18:43.361Z,66.59
2022-11-02T02:21:39.214Z,66.71
2022-11-02T02:24:41.729Z,66.58
2022-11-02T02:27:14.159Z,66.53
2022-11-02T02:30:03.209Z,67.13
2022-11-02T02:32:45.954Z,66.92
2022-11-02T02:35:15.990Z,67.15
2022-11-02T02:37:57.475Z,67.11
2022-11-02T02:40:36.868Z,67.06
2022-11-02T02:43:06.839Z,67.13
2022-11-02T02:45:46.106Z,67.11
2022-11-02T02:48:24.849Z,66.97
2022-11-02T02:51:00.680Z,66.82
2022-11-02T02:53:36.253Z,66.93
2022-11-02T02:56:10.825Z,67.32
2022-11-02T02:58:52.946Z,67.00
2022-11-02T03:01:20.316Z,67.02
2022-11-02T03:03:47.591Z,66.97
2022-11-02T03:06:21.281Z,66.91
2022-11-02T03:09:10.483Z,66.98
2022-11-02T03:12:00.326Z,66.94
2022-11-02T03:14:38.840Z,66.96
2022-11-02T03:17:11.929Z,66.91
2022-11-02T03:19:49.887Z,67.32
2022-11-02T03:22:30.676Z,67.33
2022-11-02T03:25:12.790Z,67.41
2022-11-02T03:27:53.480Z,67.50
2022-11-02T03:30:28.129Z,67.34
2022-11-02T03:33:22.805Z,67.59
2022-11-02T03:36:12.984Z,67.61
2022-11-02T03:39:04.806Z,67.86
2022-11-02T03:41:35.652Z,67.74
2022-11-02T03:44:08.810Z,67.68
2022-11-02T03:46:40.496Z,68.17
2022-11-02T03:49:14.351Z,67.98
2022-11-02T03:51:44.056Z,68.17
2022-11-02T03:54:27.102Z,68.22
2022-11-02T03:56:59.467Z,68.25
2022-11-02T03:59:31.652Z,68.55
2022-11-02T04:02:25.024Z,68.74
2022-11-02T04:04:53.940Z,68.64
2022-11-02T04:07:27.682Z,68.76
2022-11-02T04:09:54.695Z,68.88
2022-11-02T04:12:40.261Z,69.28
2022-11-02T04:15:09.028Z,69.33
2022-11-02T04:17:55.947Z,69.47
2022-11-02T04:20:22.988Z,69.52
2022-11-02T04:23:10.183Z,69.19
2022-11-02T04:25:37.303Z,69.32
2022-11-02T04:28:14.669Z,69.12
2022-11-02T04:30:58.795Z,69.21
2022-11-02T04:33:34.889Z,69.21
2022-11-02T04:36:16.288Z,69.35
2022-11-02T04:38:48.627Z,69.55
2022-11-02T04:41:42.218Z,69.52
2022-11-02T04:44:29.256Z,69.60
2022-11-02T04:47:04.966Z,69.81
2022-11-02T04:49:35.796Z,69.74
2022-11-02T04:52:05.921Z,69.62
2022-11-02T04:54:35.138Z,69.69
2022-11-02T04:57:04.922Z,69.49
2022-11-02T04:59:33.251Z,69.96
2022-11-02T05:02:00.288Z,69.70
2022-11-02T05:04:27.985Z,69.83
2022-11-02T05:07:01.080Z,69.64
2022-11-02T05:09:28.932Z,69.81
2022-11-02T05:11:58.934Z,69.72
2022-11-02T05:14:26.096Z,69.86
2022-11-02T05:16:53.107Z,69.84
2022-11-02T05:19:20.144Z,69.76
2022-11-02T05:21:48.113Z,69.75
2022-11-02T05:24:15.212Z,69.54
2022-11-02T05:26:42.719Z,69.45
2022-11-02T05:29:12.478Z,69.63
2022-11-02T05:31:39.550Z,69.48
2022-11-02T05:34:06.989Z,69.36
2022-11-02T05:36:33.951Z,69.39
2022-11-02T05:39:01.549Z,69.19
2022-11-02T05:41:31.289Z,69.37
2022-11-02T05:44:02.511Z,69.36
2022-11-02T05:46:41.433Z,69.31
2022-11-02T05:49:08.777Z,69.01
2022-11-02T05:51:35.978Z,69.20
2022-11-02T05:54:03.227Z,69.02
2022-11-02T05:56:30.493Z,68.70
2022-11-02T05:58:57.743Z,68.91
2022-11-02T06:01:25.244Z,68.75
2022-11-02T06:03:53.883Z,68.98
2022-11-02T06:06:21.966Z,68.96
2022-11-02T06:08:53.525Z,68.53
2022-11-02T06:11:21.140Z,68.92
2022-11-02T06:13:50.988Z,68.56
2022-11-02T06:16:23.064Z,68.22
2022-11-02T06:18:51.070Z,68.75
2022-11-02T06:21:18.907Z,68.12
2022-11-02T06:23:49.308Z,68.63
2022-11-02T06:26:17.116Z,68.40
2022-11-02T06:28:44.264Z,68.94
2022-11-02T06:31:12.448Z,68.50
2022-11-02T06:33:39.551Z,68.53
2022-11-02T06:36:08.065Z,68.47
2022-11-02T06:38:35.238Z,68.10
2022-11-02T06:41:05.832Z,67.86
2022-11-02T06:43:36.928Z,68.01
2022-11-02T06:46:04.799Z,67.98
2022-11-02T06:48:35.281Z,67.78
2022-11-02T06:51:04.684Z,67.40
2022-11-02T06:53:32.169Z,67.79
2022-11-02T06:56:00.147Z,67.91
2022-11-02T06:58:27.607Z,67.67
2022-11-02T07:01:10.075Z,67.60
2022-11-02T07:03:37.362Z,67.56
2022-11-02T07:06:11.249Z,67.55
2022-11-02T07:09:21.510Z,67.20
2022-11-02T07:11:48.475Z,67.63
2022-11-02T07:14:15.270Z,67.08
2022-11-02T07:16:42.401Z,67.37
2022-11-02T07:19:09.598Z,67.14
2022-11-02T07:21:36.601Z,66.90
2022-11-02T07:24:03.744Z,66.87
2022-11-02T07:26:30.907Z,67.11
2022-11-02T07:28:59.379Z,66.83
2022-11-02T07:31:26.669Z,66.73
2022-11-02T07:33:53.609Z,66.83
2022-11-02T07:36:20.645Z,66.66
2022-11-02T07:38:47.567Z,66.84
2022-11-02T07:41:14.536Z,66.96
2022-11-02T07:43:43.256Z,67.29
2022-11-02T07:46:40.284Z,67.52
2022-11-02T07:49:07.193Z,67.66
2022-11-02T07:51:34.128Z,67.48
2022-11-02T07:54:01.635Z,67.44
2022-11-02T07:56:28.788Z,67.54
2022-11-02T07:58:55.712Z,67.30
2022-11-02T08:01:23.270Z,67.55
2022-11-02T08:03:50.433Z,67.37
2022-11-02T08:06:17.625Z,67.60
2022-11-02T08:08:44.606Z,67.65
2022-11-02T08:11:11.597Z,67.66
2022-11-02T08:13:39.114Z,68.02
2022-11-02T08:16:06.275Z,67.93
2022-11-02T08:18:33.668Z,68.00
2022-11-02T08:21:01.000Z,68.15
2022-11-02T08:23:28.057Z,67.68
2022-11-02T08:25:58.375Z,67.51
2022-11-02T08:28:40.316Z,67.09
2022-11-02T08:31:12.483Z,67.28
2022-11-02T08:33:39.493Z,66.78
2022-11-02T08:36:06.754Z,66.75
2022-11-02T08:38:33.767Z,67.09
2022-11-02T08:41:01.353Z,66.85
2022-11-02T08:43:28.628Z,66.53
2022-11-02T08:46:16.775Z,66.44
2022-11-02T08:48:44.186Z,66.07
2022-11-02T08:51:11.335Z,66.65
2022-11-02T08:53:38.370Z,66.44
2022-11-02T08:56:05.659Z,66.40
2022-11-02T08:58:32.676Z,66.61
2022-11-02T09:00:59.963Z,66.63
2022-11-02T09:03:28.394Z,66.26
2022-11-02T09:06:00.776Z,66.43
2022-11-02T09:08:28.435Z,66.18
2022-11-02T09:11:00.453Z,66.23
2022-11-02T09:13:28.582Z,66.22
2022-11-02T09:15:57.983Z,66.22
2022-11-02T09:18:25.210Z,66.34
2022-11-02T09:20:52.252Z,66.26
2022-11-02T09:23:20.860Z,66.58
2022-11-02T09:25:48.752Z,66.59
2022-11-02T09:28:15.952Z,66.30
2022-11-02T09:30:43.392Z,66.46
2022-11-02T09:33:10.568Z,66.37
2022-11-02T09:35:44.724Z,66.04
2022-11-02T09:38:12.691Z,66.17
2022-11-02T09:40:59.884Z,65.59
2022-11-02T09:43:49.519Z,66.09
2022-11-02T09:46:22.103Z,66.12
2022-11-02T09:49:03.596Z,65.97
2022-11-02T09:51:42.079Z,65.91
2022-11-02T09:54:18.274Z,66.30
2022-11-02T09:56:46.247Z,66.33
2022-11-02T09:59:19.920Z,66.37
2022-11-02T10:02:15.024Z,65.46
2022-11-02T10:05:24.246Z,65.22
2022-11-02T10:08:15.887Z,65.59
2022-11-02T10:11:08.080Z,65.82
2022-11-02T10:13:44.983Z,65.79
2022-11-02T10:16:44.850Z,65.45
2022-11-02T10:19:19.931Z,65.44
2022-11-02T10:21:50.146Z,65.80
2022-11-02T10:24:27.953Z,66.08
2022-11-02T10:26:59.305Z,65.97
2022-11-02T10:29:53.792Z,65.85
2022-11-02T10:32:28.825Z,66.30
2022-11-02T10:34:59.217Z,65.92
2022-11-02T10:38:15.279Z,65.78
2022-11-02T10:40:48.851Z,65.59
2022-11-02T10:43:52.391Z,65.63
2022-11-02T10:46:41.818Z,65.59
2022-11-02T10:49:45.780Z,65.68
2022-11-02T10:52:18.513Z,65.66
2022-11-02T10:54:45.574Z,66.13
2022-11-02T10:57:14.250Z,66.04
2022-11-02T10:59:41.414Z,65.51
2022-11-02T11:02:15.285Z,65.47
2022-11-02T11:04:43.786Z,65.01
2022-11-02T11:07:17.995Z,65.71
2022-11-02T11:09:55.287Z,65.19
2022-11-02T11:12:30.701Z,65.42
2022-11-02T11:20:40.030Z,65.21
2022-11-02T11:23:10.496Z,65.24
2022-11-02T11:25:37.804Z,65.29
2022-11-02T11:28:22.731Z,65.33
2022-11-02T11:31:11.536Z,65.56
2022-11-02T11:33:47.912Z,65.70
2022-11-02T11:36:33.250Z,65.56
2022-11-02T11:39:08.335Z,65.70
2022-11-02T11:41:40.982Z,65.59
2022-11-02T11:44:14.097Z,65.66
2022-11-02T11:46:46.916Z,65.56
2022-11-02T11:50:07.127Z,65.39
2022-11-02T11:52:20.766Z,65.52
2022-11-02T11:54:57.904Z,65.46
2022-11-02T11:57:28.417Z,65.87
2022-11-02T11:59:59.086Z,65.61
2022-11-02T12:02:29.303Z,65.62
2022-11-02T12:05:12.936Z,65.11
2022-11-02T12:07:45.681Z,65.64
2022-11-02T12:10:15.629Z,65.39
2022-11-02T12:12:57.827Z,65.56
2022-11-02T12:15:31.380Z,65.74
2022-11-02T12:18:14.649Z,65.25
2022-11-02T12:20:47.649Z,65.70
2022-11-02T12:23:53.635Z,65.53
2022-11-02T12:26:57.787Z,65.52
2022-11-02T12:29:39.802Z,65.41
2022-11-02T12:32:30.024Z,65.78
2022-11-02T12:35:35.044Z,65.70
2022-11-02T12:38:28.120Z,65.70
2022-11-02T12:41:05.427Z,65.75
2022-11-02T12:43:49.061Z,65.83
2022-11-02T12:46:49.261Z,65.24
2022-11-02T12:49:45.812Z,65.77
2022-11-02T12:52:31.243Z,65.64
2022-11-02T12:55:01.956Z,65.88
2022-11-02T12:57:35.131Z,65.46
2022-11-02T13:00:08.000Z,65.58
2022-11-02T13:03:15.997Z,65.04
2022-11-02T13:05:50.622Z,65.58
2022-11-02T13:08:22.192Z,65.44
2022-11-02T13:10:56.690Z,65.54
2022-11-02T13:13:40.061Z,65.44
2022-11-02T13:16:10.489Z,65.72
2022-11-02T13:18:52.038Z,65.41
2022-11-02T13:21:28.208Z,65.51
2022-11-02T13:23:59.470Z,65.51
2022-11-02T13:26:38.048Z,65.49
2022-11-02T13:29:09.669Z,65.86
2022-11-02T13:31:41.811Z,65.56
2022-11-02T13:34:16.373Z,65.45
2022-11-02T13:36:46.451Z,65.75
2022-11-02T13:39:20.636Z,65.67
2022-11-02T13:41:48.503Z,65.55
2022-11-02T13:44:28.241Z,65.45
2022-11-02T13:47:13.469Z,65.84
2022-11-02T13:49:49.198Z,66.02
2022-11-02T13:52:39.484Z,65.67
2022-11-02T13:55:14.040Z,66.03
2022-11-02T13:57:47.886Z,65.97
2022-11-02T14:00:24.016Z,65.95
2022-11-02T14:03:17.096Z,65.94
2022-11-02T14:05:55.853Z,66.15
2022-11-02T14:08:36.132Z,66.31
2022-11-02T14:11:23.248Z,66.29
2022-11-02T14:13:58.899Z,66.50
2022-11-02T14:16:51.075Z,66.03
2022-11-02T14:19:20.224Z,66.24
2022-11-02T14:21:50.863Z,66.31
2022-11-02T14:24:33.065Z,66.42
2022-11-02T14:27:03.960Z,66.49
2022-11-02T14:29:45.095Z,66.25
2022-11-02T14:32:21.609Z,66.76
2022-11-02T14:35:14.676Z,67.39
2022-11-02T14:38:00.991Z,67.20
2022-11-02T14:40:47.536Z,67.27
2022-11-02T14:43:30.581Z,66.99
2022-11-02T14:46:12.274Z,66.88
2022-11-02T14:48:45.162Z,67.01
2022-11-02T14:51:21.013Z,67.09
2022-11-02T14:53:59.111Z,67.20
2022-11-02T14:56:56.748Z,67.24
2022-11-02T14:59:38.105Z,67.27
2022-11-02T15:02:23.961Z,67.50
2022-11-02T15:04:54.537Z,67.27
2022-11-02T15:08:08.050Z,67.68
2022-11-02T15:10:42.080Z,67.53
2022-11-02T15:13:24.985Z,67.59
2022-11-02T15:15:52.066Z,67.51
2022-11-02T15:18:31.359Z,67.57
2022-11-02T15:21:10.689Z,67.76
2022-11-02T15:24:17.578Z,67.61
2022-11-02T15:26:49.557Z,67.71
2022-11-02T15:29:22.998Z,67.58
2022-11-02T15:32:01.347Z,67.93
2022-11-02T15:34:44.944Z,67.55
2022-11-02T15:37:56.441Z,67.73
2022-11-02T15:41:02.879Z,67.16
2022-11-02T15:44:09.277Z,67.34
2022-11-02T15:46:55.195Z,67.28
2022-11-02T15:50:01.765Z,67.60
2022-11-02T15:53:21.819Z,67.56
2022-11-02T15:55:53.906Z,67.17
2022-11-02T15:58:58.929Z,67.43
2022-11-02T16:01:28.227Z,67.64
2022-11-02T16:04:02.568Z,67.36
2022-11-02T16:06:33.391Z,67.58
2022-11-02T16:09:02.425Z,67.73
2022-11-02T16:11:29.681Z,67.95
2022-11-02T16:14:18.184Z,67.83
2022-11-02T16:16:50.391Z,68.05
2022-11-02T16:19:20.525Z,67.97
2022-11-02T16:21:50.253Z,68.30
2022-11-02T16:24:18.371Z,68.19
2022-11-02T16:26:46.842Z,67.96
2022-11-02T16:29:30.550Z,68.37
2022-11-02T16:31:58.222Z,68.15
2022-11-02T16:34:30.953Z,68.63
2022-11-02T16:37:10.033Z,68.57
2022-11-02T16:39:43.785Z,68.10
2022-11-02T16:42:22.373Z,68.21
2022-11-02T16:44:56.693Z,68.47
2022-11-02T16:47:38.030Z,68.32
2022-11-02T16:50:19.476Z,68.20
2022-11-02T16:52:57.930Z,68.44
2022-11-02T16:55:41.851Z,68.56
2022-11-02T16:58:23.583Z,68.18
2022-11-02T17:01:05.583Z,68.09
2022-11-02T17:03:34.970Z,68.04
2022-11-02T17:06:06.280Z,67.80
2022-11-02T17:08:40.303Z,68.13
2022-11-02T17:11:17.150Z,68.25
2022-11-02T17:13:51.026Z,68.35
2022-11-02T17:16:19.547Z,68.20
2022-11-02T17:18:47.196Z,68.24
2022-11-02T17:21:14.274Z,68.24
2022-11-02T17:23:49.707Z,68.26
2022-11-02T17:26:23.470Z,68.28
2022-11-02T17:28:54.598Z,68.11
2022-11-02T17:31:25.397Z,68.19
2022-11-02T17:33:55.014Z,68.22
2022-11-02T17:36:27.979Z,68.19
2022-11-02T17:38:56.152Z,67.81
2022-11-02T17:41:55.387Z,68.29
2022-11-02T17:44:22.506Z,68.28
2022-11-02T17:46:49.529Z,68.16
2022-11-02T17:49:16.736Z,68.31
2022-11-02T17:51:43.951Z,68.05
2022-11-02T17:54:14.878Z,68.11
2022-11-02T17:56:44.938Z,68.08
2022-11-02T17:59:12.967Z,68.05
2022-11-02T18:01:40.214Z,68.21
2022-11-02T18:04:07.428Z,68.18
2022-11-02T18:06:34.515Z,68.34
2022-11-02T18:09:19.456Z,68.43
2022-11-02T18:11:46.986Z,68.31
2022-11-02T18:14:17.033Z,67.75
2022-11-02T18:16:44.905Z,67.93
2022-11-02T18:19:12.637Z,68.09
2022-11-02T18:21:39.757Z,68.19
2022-11-02T18:24:07.386Z,68.18
2022-11-02T18:26:35.899Z,68.24
2022-11-02T18:29:13.427Z,68.22
2022-11-02T18:31:41.036Z,68.34
2022-11-02T18:34:08.292Z,68.51
2022-11-02T18:36:39.454Z,68.57
2022-11-02T18:39:08.261Z,68.73
2022-11-02T18:41:37.077Z,68.41
2022-11-02T18:44:14.967Z,68.43
2022-11-02T18:46:49.215Z,68.67
2022-11-02T18:49:18.257Z,68.11
2022-11-02T18:52:02.185Z,68.41
2022-11-02T18:54:35.439Z,68.56
2022-11-02T18:57:02.576Z,68.60
2022-11-02T18:59:29.723Z,68.57
2022-11-02T19:01:56.727Z,68.71
2022-11-02T19:04:23.920Z,68.49
2022-11-02T19:07:11.274Z,68.58
2022-11-02T19:09:42.683Z,68.60
2022-11-02T19:12:23.939Z,68.51
2022-11-02T19:14:53.619Z,68.36
2022-11-02T19:17:25.007Z,68.84
2022-11-02T19:19:52.396Z,68.55
2022-11-02T19:22:24.591Z,68.59
2022-11-02T19:24:52.649Z,68.83
2022-11-02T19:27:22.182Z,68.61
2022-11-02T19:29:49.603Z,68.83
2022-11-02T19:32:17.550Z,69.02
2022-11-02T19:34:44.722Z,68.98
2022-11-02T19:37:12.610Z,68.99
2022-11-02T19:39:39.663Z,68.99
2022-11-02T19:42:07.685Z,68.92
2022-11-02T19:44:39.653Z,69.08
2022-11-02T19:47:09.927Z,69.29
2022-11-02T19:49:38.428Z,69.17
2022-11-02T19:52:06.302Z,69.25
2022-11-02T19:54:33.407Z,69.08
2022-11-02T19:57:00.342Z,69.23
2022-11-02T19:59:28.766Z,69.38
2022-11-02T20:01:55.762Z,69.05
2022-11-02T20:04:22.690Z,69.35
2022-11-02T20:06:50.466Z,69.38
2022-11-02T20:09:19.727Z,69.13
2022-11-02T20:11:49.595Z,69.46
2022-11-02T20:14:17.755Z,69.48
2022-11-02T20:17:04.116Z,69.06
2022-11-02T20:19:38.902Z,69.30
2022-11-02T20:22:06.462Z,69.17
2022-11-02T20:24:33.598Z,69.44
2022-11-02T20:27:03.050Z,69.38
2022-11-02T20:29:33.304Z,69.57
2022-11-02T20:32:00.677Z,69.19
2022-11-02T20:34:28.009Z,69.22
2022-11-02T20:36:55.337Z,69.10
2022-11-02T20:39:22.517Z,69.22
2022-11-02T20:41:55.885Z,69.21
2022-11-02T20:44:24.163Z,69.34
2022-11-02T20:46:53.296Z,69.37
2022-11-02T20:49:36.384Z,69.32
2022-11-02T20:52:10.128Z,69.56
2022-11-02T20:54:37.189Z,69.54
2022-11-02T20:57:04.379Z,69.22
2022-11-02T20:59:31.513Z,69.61
2022-11-02T21:01:58.561Z,69.60
2022-11-02T21:04:25.685Z,69.19
2022-11-02T21:06:52.712Z,69.54
2022-11-02T21:09:19.999Z,69.39
2022-11-02T21:12:16.029Z,69.36
2022-11-02T21:14:42.956Z,69.21
2022-11-02T21:17:11.783Z,69.66
2022-11-02T21:19:38.689Z,69.76
2022-11-02T21:22:05.651Z,69.65
2022-11-02T21:24:32.696Z,69.82
2022-11-02T21:26:59.574Z,69.67
2022-11-02T21:29:26.523Z,69.75
2022-11-02T21:31:53.507Z,69.73
2022-11-02T21:34:20.966Z,69.86
2022-11-02T21:36:48.887Z,69.85
2022-11-02T21:39:19.083Z,69.85
2022-11-02T21:41:46.998Z,70.06
2022-11-02T21:44:17.091Z,69.66
2022-11-02T21:46:47.087Z,69.79
2022-11-02T21:49:14.261Z,69.68
2022-11-02T21:51:42.717Z,69.83
2022-11-02T21:54:09.926Z,70.22
2022-11-02T21:56:41.549Z,70.16
2022-11-02T21:59:09.680Z,70.33
2022-11-02T22:01:47.384Z,70.39
2022-11-02T22:04:19.510Z,70.10
2022-11-02T22:06:46.603Z,70.13
2022-11-02T22:09:15.393Z,69.79
2022-11-02T22:11:44.032Z,69.92
2022-11-02T22:14:12.004Z,70.10
2022-11-02T22:16:41.731Z,70.06
2022-11-02T22:19:13.668Z,70.33
2022-11-02T22:21:45.047Z,70.33
2022-11-02T22:24:12.877Z,70.18
2022-11-02T22:26:40.951Z,69.97
2022-11-02T22:29:08.566Z,70.20
2022-11-02T22:31:39.151Z,70.48
2022-11-02T22:34:09.412Z,70.65
2022-11-02T22:36:38.418Z,70.13
2022-11-02T22:39:07.569Z,70.19
2022-11-02T22:41:39.566Z,69.95
2022-11-02T22:44:13.852Z,70.08
2022-11-02T22:46:50.691Z,69.87
2022-11-02T22:49:19.956Z,69.80
2022-11-02T22:51:49.728Z,69.90
2022-11-02T22:54:19.568Z,69.99
2022-11-02T22:56:48.530Z,70.10
2022-11-02T22:59:18.993Z,70.14
2022-11-02T23:01:46.164Z,70.19
2022-11-02T23:04:13.395Z,70.19
2022-11-02T23:06:40.641Z,70.21
2022-11-02T23:09:10.835Z,70.02
2022-11-02T23:11:37.898Z,70.41
2022-11-02T23:14:14.500Z,70.30
2022-11-02T23:16:43.871Z,70.50
2022-11-02T23:19:29.992Z,70.34
2022-11-02T23:22:19.684Z,70.54
2022-11-02T23:25:13.693Z,70.44
2022-11-02T23:28:03.112Z,70.33
2022-11-02T23:30:52.377Z,70.29
2022-11-02T23:33:20.109Z,70.31
2022-11-02T23:36:05.506Z,70.50
2022-11-02T23:38:51.456Z,70.26
2022-11-02T23:41:19.622Z,70.35
2022-11-02T23:43:47.728Z,70.22
2022-11-02T23:46:15.359Z,70.22
2022-11-02T23:48:42.714Z,70.39
2022-11-02T23:51:29.107Z,70.18
2022-11-02T23:54:15.083Z,70.37
2022-11-02T23:56:44.877Z,70.57
2022-11-02T23:59:16.788Z,70.63
